createdAt,value
2018-12-15T00:00:13.568Z,0.00
2018-12-15T00:01:13.551Z,0.00
2018-12-15T00:02:13.554Z,0.00
2018-12-15T00:03:13.527Z,0.00
2018-12-15T00:04:13.535Z,0.00
2018-12-15T00:05:13.502Z,0.00
2018-12-15T00:06:13.489Z,0.00
2018-12-15T00:07:13.476Z,0.00
2018-12-15T00:08:13.481Z,0.00
2018-12-15T00:09:13.470Z,0.00
2018-12-15T00:10:13.445Z,0.00
2018-12-15T00:11:13.436Z,0.00
2018-12-15T00:12:13.426Z,0.00
2018-12-15T00:13:13.425Z,0.00
2018-12-15T00:14:13.438Z,0.00
2018-12-15T00:15:13.409Z,0.00
2018-12-15T00:16:13.379Z,0.00
2018-12-15T00:17:13.368Z,0.00
2018-12-15T00:18:13.365Z,0.00
2018-12-15T00:19:13.367Z,0.00
2018-12-15T00:20:13.365Z,0.00
2018-12-15T00:21:13.378Z,0.00
2018-12-15T00:22:13.313Z,0.00
2018-12-15T00:23:13.308Z,0.00
2018-12-15T00:24:13.306Z,0.00
2018-12-15T00:25:13.309Z,0.00
2018-12-15T00:26:13.318Z,0.00
2018-12-15T00:27:13.256Z,0.00
2018-12-15T00:28:13.247Z,0.00
2018-12-15T00:29:13.265Z,0.00
2018-12-15T00:30:14.786Z,0.00
2018-12-15T00:31:13.237Z,0.00
2018-12-15T00:32:13.211Z,0.00
2018-12-15T00:33:13.195Z,0.00
2018-12-15T00:34:13.212Z,0.00
2018-12-15T00:35:13.174Z,0.00
2018-12-15T00:36:13.186Z,0.00
2018-12-15T00:37:13.180Z,0.00
2018-12-15T00:38:13.154Z,0.00
2018-12-15T00:39:13.137Z,0.00
2018-12-15T00:40:13.115Z,0.00
2018-12-15T00:41:13.104Z,0.00
2018-12-15T00:42:13.119Z,0.00
2018-12-15T00:43:13.090Z,0.00
2018-12-15T00:44:13.085Z,0.00
2018-12-15T00:45:13.072Z,0.00
2018-12-15T00:46:13.084Z,0.00
2018-12-15T00:47:13.967Z,0.00
2018-12-15T00:48:13.061Z,0.00
2018-12-15T00:49:13.064Z,0.00
2018-12-15T00:50:13.009Z,0.00
2018-12-15T00:51:13.001Z,0.00
2018-12-15T00:52:12.988Z,0.00
2018-12-15T00:53:12.981Z,0.00
2018-12-15T00:54:13.002Z,0.00
2018-12-15T00:55:12.958Z,0.00
2018-12-15T00:56:12.943Z,0.00
2018-12-15T00:57:12.928Z,0.00
2018-12-15T00:58:14.347Z,0.00
2018-12-15T00:59:12.931Z,0.00
2018-12-15T01:00:12.904Z,0.00
2018-12-15T01:01:12.885Z,0.00
2018-12-15T01:02:12.876Z,0.00
2018-12-15T01:03:12.868Z,0.00
2018-12-15T01:04:12.883Z,0.00
2018-12-15T01:05:12.862Z,0.00
2018-12-15T01:06:12.864Z,0.00
2018-12-15T01:07:12.819Z,0.00
2018-12-15T01:08:12.811Z,0.00
2018-12-15T01:09:12.811Z,0.00
2018-12-15T01:10:12.785Z,0.00
2018-12-15T01:11:12.786Z,0.00
2018-12-15T01:12:12.799Z,0.00
2018-12-15T01:13:12.754Z,0.00
2018-12-15T01:14:12.768Z,0.00
2018-12-15T01:15:12.738Z,0.00
2018-12-15T01:16:12.733Z,0.00
2018-12-15T01:17:12.722Z,0.00
2018-12-15T01:18:12.696Z,0.00
2018-12-15T01:19:12.742Z,0.00
2018-12-15T01:20:12.700Z,0.00
2018-12-15T01:21:12.669Z,0.00
2018-12-15T01:22:12.664Z,0.00
2018-12-15T01:23:12.681Z,0.00
2018-12-15T01:24:12.629Z,0.00
2018-12-15T01:25:12.629Z,0.00
2018-12-15T01:26:12.607Z,0.00
2018-12-15T01:27:12.611Z,0.00
2018-12-15T01:28:12.595Z,0.00
2018-12-15T01:29:12.590Z,0.00
2018-12-15T01:30:12.575Z,0.00
2018-12-15T01:31:12.553Z,0.00
2018-12-15T01:32:12.542Z,0.00
2018-12-15T01:33:12.536Z,0.00
2018-12-15T01:34:12.533Z,0.00
2018-12-15T01:35:12.538Z,0.00
2018-12-15T01:36:12.498Z,0.00
2018-12-15T01:37:12.490Z,0.00
2018-12-15T01:38:12.477Z,0.00
2018-12-15T01:39:12.479Z,0.00
2018-12-15T01:40:12.467Z,0.00
2018-12-15T01:41:12.444Z,0.00
2018-12-15T01:42:12.451Z,0.00
2018-12-15T01:43:12.417Z,0.00
2018-12-15T01:44:12.409Z,0.00
2018-12-15T01:45:12.420Z,0.00
2018-12-15T01:46:12.399Z,0.00
2018-12-15T01:47:12.378Z,0.00
2018-12-15T01:48:12.362Z,0.00
2018-12-15T01:49:12.351Z,0.00
2018-12-15T01:50:12.365Z,0.00
2018-12-15T01:51:12.334Z,0.00
2018-12-15T01:52:12.331Z,0.00
2018-12-15T01:53:12.309Z,0.00
2018-12-15T01:54:12.298Z,0.00
2018-12-15T01:55:12.302Z,0.00
2018-12-15T01:56:12.278Z,0.00
2018-12-15T01:57:12.271Z,0.00
2018-12-15T01:58:12.275Z,0.00
2018-12-15T01:59:12.258Z,0.00
2018-12-15T02:00:12.256Z,0.00
2018-12-15T02:01:12.224Z,0.00
2018-12-15T02:02:12.208Z,0.00
2018-12-15T02:03:12.197Z,0.00
2018-12-15T02:04:12.188Z,0.00
2018-12-15T02:05:12.188Z,0.00
2018-12-15T02:06:12.163Z,0.00
2018-12-15T02:07:12.157Z,0.00
2018-12-15T02:08:12.169Z,0.00
2018-12-15T02:09:12.132Z,0.00
2018-12-15T02:10:12.139Z,0.00
2018-12-15T02:11:12.111Z,0.00
2018-12-15T02:12:12.099Z,0.00
2018-12-15T02:13:12.095Z,0.00
2018-12-15T02:14:12.090Z,0.00
2018-12-15T02:15:12.079Z,0.00
2018-12-15T02:16:12.054Z,0.00
2018-12-15T02:17:12.044Z,0.00
2018-12-15T02:18:12.072Z,0.00
2018-12-15T02:19:12.030Z,0.00
2018-12-15T02:20:12.034Z,0.00
2018-12-15T02:21:12.007Z,0.00
2018-12-15T02:22:11.996Z,0.00
2018-12-15T02:23:11.979Z,0.00
2018-12-15T02:24:11.967Z,0.00
2018-12-15T02:25:11.978Z,0.00
2018-12-15T02:26:11.943Z,0.00
2018-12-15T02:27:11.940Z,0.00
2018-12-15T02:28:11.927Z,0.00
2018-12-15T02:29:11.910Z,0.00
2018-12-15T02:30:11.920Z,0.00
2018-12-15T02:31:11.895Z,0.00
2018-12-15T02:32:11.884Z,0.00
2018-12-15T02:33:11.875Z,0.00
2018-12-15T02:34:11.856Z,0.00
2018-12-15T02:35:11.863Z,0.00
2018-12-15T02:36:11.835Z,0.00
2018-12-15T02:37:11.824Z,0.00
2018-12-15T02:38:11.812Z,0.00
2018-12-15T02:39:11.820Z,0.00
2018-12-15T02:40:11.838Z,0.00
2018-12-15T02:41:11.790Z,0.00
2018-12-15T02:42:11.769Z,0.00
2018-12-15T02:43:11.760Z,0.00
2018-12-15T02:44:11.757Z,0.00
2018-12-15T02:45:11.761Z,0.00
2018-12-15T02:46:11.738Z,0.00
2018-12-15T02:47:11.715Z,0.00
2018-12-15T02:48:11.706Z,0.00
2018-12-15T02:49:11.700Z,0.00
2018-12-15T02:50:11.981Z,0.00
2018-12-15T02:51:11.672Z,0.00
2018-12-15T02:52:11.672Z,0.00
2018-12-15T02:53:11.647Z,0.00
2018-12-15T02:54:11.641Z,0.00
2018-12-15T02:55:11.639Z,0.00
2018-12-15T02:56:11.638Z,0.00
2018-12-15T02:57:11.609Z,0.00
2018-12-15T02:58:11.607Z,0.00
2018-12-15T02:59:11.581Z,0.00
2018-12-15T03:00:11.592Z,0.00
2018-12-15T03:01:11.581Z,0.00
2018-12-15T03:02:11.554Z,0.00
2018-12-15T03:03:11.538Z,0.00
2018-12-15T03:04:11.536Z,0.00
2018-12-15T03:05:11.540Z,0.00
2018-12-15T03:06:11.511Z,0.00
2018-12-15T03:07:11.497Z,0.00
2018-12-15T03:08:11.481Z,0.00
2018-12-15T03:09:11.476Z,0.00
2018-12-15T03:10:11.474Z,0.00
2018-12-15T03:11:11.447Z,0.00
2018-12-15T03:12:11.438Z,0.00
2018-12-15T03:13:11.432Z,0.00
2018-12-15T03:14:11.431Z,0.00
2018-12-15T03:15:11.416Z,0.00
2018-12-15T03:16:11.407Z,0.00
2018-12-15T03:17:11.386Z,0.00
2018-12-15T03:18:11.379Z,0.00
2018-12-15T03:19:11.366Z,0.00
2018-12-15T03:20:11.379Z,0.00
2018-12-15T03:21:11.349Z,0.00
2018-12-15T03:22:11.342Z,0.00
2018-12-15T03:23:11.315Z,0.00
2018-12-15T03:24:11.314Z,0.00
2018-12-15T03:25:11.325Z,0.00
2018-12-15T03:26:11.283Z,0.00
2018-12-15T03:27:11.273Z,0.00
2018-12-15T03:28:11.268Z,0.00
2018-12-15T03:29:11.248Z,0.00
2018-12-15T03:30:11.240Z,0.00
2018-12-15T03:31:11.263Z,0.00
2018-12-15T03:32:11.225Z,0.00
2018-12-15T03:33:11.232Z,0.00
2018-12-15T03:34:11.196Z,0.00
2018-12-15T03:35:11.184Z,0.00
2018-12-15T03:36:11.194Z,0.00
2018-12-15T03:37:11.163Z,0.00
2018-12-15T03:38:11.156Z,0.00
2018-12-15T03:39:11.152Z,0.00
2018-12-15T03:40:11.130Z,0.00
2018-12-15T03:41:11.151Z,0.00
2018-12-15T03:42:11.110Z,0.00
2018-12-15T03:43:11.111Z,0.00
2018-12-15T03:44:11.090Z,0.00
2018-12-15T03:45:11.105Z,0.00
2018-12-15T03:46:11.084Z,0.00
2018-12-15T03:47:11.060Z,0.00
2018-12-15T03:48:11.052Z,0.00
2018-12-15T03:49:11.031Z,0.00
2018-12-15T03:50:11.026Z,0.00
2018-12-15T03:51:11.038Z,0.00
2018-12-15T03:52:10.998Z,0.00
2018-12-15T03:53:10.987Z,0.00
2018-12-15T03:54:10.979Z,0.00
2018-12-15T03:55:10.966Z,0.00
2018-12-15T03:56:10.981Z,0.00
2018-12-15T03:57:10.944Z,0.00
2018-12-15T03:58:10.929Z,0.00
2018-12-15T03:59:10.954Z,0.00
2018-12-15T04:00:10.917Z,0.00
2018-12-15T04:01:10.912Z,0.00
2018-12-15T04:02:10.887Z,0.00
2018-12-15T04:03:10.945Z,0.00
2018-12-15T04:04:10.868Z,0.00
2018-12-15T04:05:10.882Z,0.00
2018-12-15T04:06:10.915Z,0.00
2018-12-15T04:07:10.873Z,0.00
2018-12-15T04:08:10.825Z,0.00
2018-12-15T04:09:10.821Z,0.00
2018-12-15T04:10:10.808Z,0.00
2018-12-15T04:11:10.819Z,0.00
2018-12-15T04:12:10.780Z,0.00
2018-12-15T04:13:10.771Z,0.00
2018-12-15T04:14:10.760Z,0.00
2018-12-15T04:15:10.812Z,0.00
2018-12-15T04:16:10.765Z,0.00
2018-12-15T04:17:10.725Z,0.00
2018-12-15T04:18:10.731Z,0.00
2018-12-15T04:19:10.703Z,0.00
2018-12-15T04:20:10.694Z,0.00
2018-12-15T04:21:10.696Z,0.00
2018-12-15T04:22:10.675Z,0.00
2018-12-15T04:23:10.659Z,0.00
2018-12-15T04:24:10.657Z,0.00
2018-12-15T04:25:10.641Z,0.00
2018-12-15T04:26:10.641Z,0.00
2018-12-15T04:27:10.614Z,0.00
2018-12-15T04:28:10.607Z,0.00
2018-12-15T04:29:10.610Z,0.00
2018-12-15T04:30:10.588Z,0.00
2018-12-15T04:31:10.580Z,0.00
2018-12-15T04:32:10.559Z,0.00
2018-12-15T04:33:10.554Z,0.00
2018-12-15T04:34:10.543Z,0.00
2018-12-15T04:35:10.538Z,0.00
2018-12-15T04:36:10.554Z,0.00
2018-12-15T04:37:10.505Z,0.00
2018-12-15T04:38:10.494Z,0.00
2018-12-15T04:39:10.480Z,0.00
2018-12-15T04:40:10.488Z,0.00
2018-12-15T04:41:10.478Z,0.00
2018-12-15T04:42:10.448Z,0.00
2018-12-15T04:43:10.442Z,0.00
2018-12-15T04:44:10.427Z,0.00
2018-12-15T04:45:10.419Z,0.00
2018-12-15T04:46:10.417Z,0.00
2018-12-15T04:47:10.397Z,0.00
2018-12-15T04:48:11.359Z,0.00
2018-12-15T04:49:10.375Z,0.00
2018-12-15T04:50:10.363Z,0.00
2018-12-15T04:51:10.365Z,0.00
2018-12-15T04:52:10.341Z,0.00
2018-12-15T04:53:10.331Z,0.00
2018-12-15T04:54:10.313Z,0.00
2018-12-15T04:55:10.304Z,0.00
2018-12-15T04:56:10.308Z,0.00
2018-12-15T04:57:10.288Z,0.00
2018-12-15T04:58:10.285Z,0.00
2018-12-15T04:59:10.349Z,0.00
2018-12-15T05:00:10.263Z,0.00
2018-12-15T05:01:10.254Z,0.00
2018-12-15T05:02:10.237Z,0.00
2018-12-15T05:03:10.235Z,0.00
2018-12-15T05:04:10.210Z,0.00
2018-12-15T05:05:10.192Z,0.00
2018-12-15T05:06:10.196Z,0.00
2018-12-15T05:07:10.180Z,0.00
2018-12-15T05:08:10.177Z,0.00
2018-12-15T05:09:10.149Z,0.00
2018-12-15T05:10:10.137Z,0.00
2018-12-15T05:11:10.147Z,0.00
2018-12-15T05:12:10.125Z,0.00
2018-12-15T05:13:10.112Z,0.00
2018-12-15T05:14:10.101Z,0.00
2018-12-15T05:15:10.085Z,0.00
2018-12-15T05:16:10.095Z,0.00
2018-12-15T05:17:10.061Z,0.00
2018-12-15T05:18:10.051Z,0.00
2018-12-15T05:19:10.043Z,0.00
2018-12-15T05:20:10.046Z,0.00
2018-12-15T05:21:10.032Z,0.00
2018-12-15T05:22:10.030Z,0.00
2018-12-15T05:23:09.994Z,0.00
2018-12-15T05:24:09.982Z,0.00
2018-12-15T05:25:09.977Z,0.00
2018-12-15T05:26:09.962Z,0.00
2018-12-15T05:27:09.962Z,0.00
2018-12-15T05:28:09.940Z,0.00
2018-12-15T05:29:09.929Z,0.00
2018-12-15T05:30:09.921Z,0.00
2018-12-15T05:31:09.909Z,0.00
2018-12-15T05:32:09.922Z,0.00
2018-12-15T05:33:09.891Z,0.00
2018-12-15T05:34:09.879Z,0.00
2018-12-15T05:35:09.861Z,0.00
2018-12-15T05:36:09.854Z,0.00
2018-12-15T05:37:09.856Z,0.00
2018-12-15T05:38:09.827Z,0.00
2018-12-15T05:39:09.817Z,0.00
2018-12-15T05:40:09.808Z,0.00
2018-12-15T05:41:09.795Z,0.00
2018-12-15T05:42:09.798Z,0.00
2018-12-15T05:43:09.777Z,0.00
2018-12-15T05:44:09.784Z,0.00
2018-12-15T05:45:09.756Z,0.00
2018-12-15T05:46:09.742Z,0.00
2018-12-15T05:47:09.747Z,0.00
2018-12-15T05:48:09.733Z,0.00
2018-12-15T05:49:09.713Z,0.00
2018-12-15T05:50:09.719Z,0.00
2018-12-15T05:51:09.686Z,0.00
2018-12-15T05:52:09.686Z,0.00
2018-12-15T05:53:09.666Z,0.00
2018-12-15T05:54:09.671Z,0.00
2018-12-15T05:55:09.646Z,0.00
2018-12-15T05:56:09.635Z,0.00
2018-12-15T05:57:09.640Z,0.00
2018-12-15T05:58:09.615Z,0.00
2018-12-15T05:59:09.601Z,0.00
2018-12-15T06:00:09.619Z,0.00
2018-12-15T06:01:09.580Z,0.00
2018-12-15T06:02:09.586Z,0.00
2018-12-15T06:03:09.558Z,0.00
2018-12-15T06:04:09.626Z,0.00
2018-12-15T06:05:09.542Z,0.00
2018-12-15T06:06:09.524Z,0.00
2018-12-15T06:07:09.534Z,0.00
2018-12-15T06:08:09.500Z,0.00
2018-12-15T06:09:09.487Z,0.00
2018-12-15T06:10:09.478Z,0.00
2018-12-15T06:11:09.466Z,0.00
2018-12-15T06:12:09.471Z,0.00
2018-12-15T06:13:09.461Z,0.00
2018-12-15T06:14:09.437Z,0.00
2018-12-15T06:15:09.421Z,0.00
2018-12-15T06:16:09.413Z,0.00
2018-12-15T06:17:09.420Z,0.00
2018-12-15T06:18:09.412Z,0.00
2018-12-15T06:19:09.394Z,0.00
2018-12-15T06:20:09.366Z,0.00
2018-12-15T06:21:09.358Z,0.00
2018-12-15T06:22:09.358Z,0.00
2018-12-15T06:23:09.336Z,0.00
2018-12-15T06:24:09.347Z,0.00
2018-12-15T06:25:09.334Z,0.00
2018-12-15T06:26:09.303Z,0.00
2018-12-15T06:27:09.308Z,0.00
2018-12-15T06:28:09.279Z,0.00
2018-12-15T06:29:09.278Z,0.00
2018-12-15T06:30:09.275Z,0.00
2018-12-15T06:31:09.265Z,0.00
2018-12-15T06:32:09.254Z,0.00
2018-12-15T06:33:09.227Z,0.00
2018-12-15T06:34:09.235Z,0.00
2018-12-15T06:35:09.210Z,0.00
2018-12-15T06:36:09.198Z,0.00
2018-12-15T06:37:09.200Z,0.00
2018-12-15T06:38:09.203Z,0.00
2018-12-15T06:39:09.162Z,0.00
2018-12-15T06:40:09.152Z,0.00
2018-12-15T06:41:09.139Z,0.00
2018-12-15T06:42:09.147Z,0.00
2018-12-15T06:43:09.127Z,0.00
2018-12-15T06:44:09.111Z,0.00
2018-12-15T06:45:09.106Z,0.00
2018-12-15T06:46:09.089Z,0.00
2018-12-15T06:47:09.123Z,0.00
2018-12-15T06:48:09.066Z,0.00
2018-12-15T06:49:09.054Z,0.00
2018-12-15T06:50:09.041Z,0.00
2018-12-15T06:51:09.034Z,0.00
2018-12-15T06:52:09.276Z,0.00
2018-12-15T06:53:09.017Z,0.00
2018-12-15T06:54:09.008Z,0.00
2018-12-15T06:55:08.989Z,0.00
2018-12-15T06:56:08.985Z,0.00
2018-12-15T06:57:08.974Z,0.00
2018-12-15T06:58:08.975Z,0.00
2018-12-15T06:59:08.963Z,0.00
2018-12-15T07:00:08.947Z,0.00
2018-12-15T07:01:08.922Z,0.00
2018-12-15T07:02:08.921Z,0.00
2018-12-15T07:03:08.911Z,0.00
2018-12-15T07:04:08.891Z,0.00
2018-12-15T07:05:08.897Z,0.00
2018-12-15T07:06:08.881Z,0.00
2018-12-15T07:07:08.859Z,0.00
2018-12-15T07:08:08.860Z,0.00
2018-12-15T07:09:08.838Z,0.00
2018-12-15T07:10:08.828Z,0.00
2018-12-15T07:11:08.813Z,0.00
2018-12-15T07:12:08.819Z,0.00
2018-12-15T07:13:08.815Z,0.00
2018-12-15T07:14:08.802Z,0.00
2018-12-15T07:15:08.766Z,0.00
2018-12-15T07:16:08.770Z,0.00
2018-12-15T07:17:08.752Z,0.00
2018-12-15T07:18:08.776Z,0.00
2018-12-15T07:19:08.732Z,0.00
2018-12-15T07:20:08.727Z,0.00
2018-12-15T07:21:08.703Z,0.00
2018-12-15T07:22:08.712Z,0.00
2018-12-15T07:23:08.709Z,0.00
2018-12-15T07:24:08.669Z,0.00
2018-12-15T07:25:09.518Z,0.00
2018-12-15T07:26:08.645Z,0.00
2018-12-15T07:27:08.642Z,0.00
2018-12-15T07:28:08.639Z,0.00
2018-12-15T07:29:08.642Z,0.00
2018-12-15T07:30:08.605Z,0.00
2018-12-15T07:31:08.597Z,0.00
2018-12-15T07:32:08.579Z,0.00
2018-12-15T07:33:08.586Z,0.00
2018-12-15T07:34:08.577Z,0.00
2018-12-15T07:35:08.566Z,0.00
2018-12-15T07:36:08.539Z,0.00
2018-12-15T07:37:08.536Z,5.62
2018-12-15T07:38:08.540Z,5.62
2018-12-15T07:39:08.504Z,5.62
2018-12-15T07:40:08.491Z,5.62
2018-12-15T07:41:08.489Z,5.62
2018-12-15T07:42:08.475Z,5.62
2018-12-15T07:43:08.487Z,5.62
2018-12-15T07:44:08.450Z,5.62
2018-12-15T07:45:08.436Z,5.62
2018-12-15T07:46:08.429Z,5.62
2018-12-15T07:47:08.425Z,5.62
2018-12-15T07:48:08.420Z,5.62
2018-12-15T07:49:08.393Z,5.62
2018-12-15T07:50:08.386Z,5.62
2018-12-15T07:51:08.376Z,5.62
2018-12-15T07:52:08.364Z,5.62
2018-12-15T07:53:08.361Z,5.62
2018-12-15T07:54:08.353Z,5.62
2018-12-15T07:55:08.324Z,5.62
2018-12-15T07:56:08.314Z,5.62
2018-12-15T07:57:08.311Z,5.62
2018-12-15T07:58:08.325Z,5.62
2018-12-15T07:59:08.286Z,5.62
2018-12-15T08:00:08.286Z,5.62
2018-12-15T08:01:08.256Z,11.25
2018-12-15T08:02:08.262Z,11.25
2018-12-15T08:03:08.258Z,11.25
2018-12-15T08:04:08.247Z,11.25
2018-12-15T08:05:08.220Z,11.25
2018-12-15T08:06:08.207Z,11.25
2018-12-15T08:07:08.196Z,11.25
2018-12-15T08:08:08.195Z,11.25
2018-12-15T08:09:08.173Z,11.25
2018-12-15T08:10:08.170Z,11.25
2018-12-15T08:11:08.177Z,11.25
2018-12-15T08:12:08.143Z,11.25
2018-12-15T08:13:08.137Z,11.25
2018-12-15T08:14:08.165Z,11.25
2018-12-15T08:15:08.105Z,11.25
2018-12-15T08:16:08.122Z,11.25
2018-12-15T08:17:08.117Z,11.25
2018-12-15T08:18:08.104Z,16.88
2018-12-15T08:19:08.059Z,16.88
2018-12-15T08:20:08.058Z,16.88
2018-12-15T08:21:08.042Z,16.88
2018-12-15T08:22:08.029Z,16.88
2018-12-15T08:23:08.032Z,16.88
2018-12-15T08:24:08.008Z,16.88
2018-12-15T08:25:08.001Z,16.88
2018-12-15T08:26:07.985Z,16.88
2018-12-15T08:27:07.998Z,16.88
2018-12-15T08:28:07.981Z,16.88
2018-12-15T08:29:07.985Z,22.50
2018-12-15T08:30:07.940Z,22.50
2018-12-15T08:31:07.928Z,22.50
2018-12-15T08:32:07.959Z,22.50
2018-12-15T08:33:07.927Z,22.50
2018-12-15T08:34:07.918Z,22.50
2018-12-15T08:35:07.896Z,22.50
2018-12-15T08:36:07.874Z,22.50
2018-12-15T08:37:07.865Z,22.50
2018-12-15T08:38:07.867Z,22.50
2018-12-15T08:39:07.847Z,22.50
2018-12-15T08:40:07.833Z,22.50
2018-12-15T08:41:07.835Z,22.50
2018-12-15T08:42:07.807Z,22.50
2018-12-15T08:43:07.798Z,22.50
2018-12-15T08:44:07.796Z,22.50
2018-12-15T08:45:07.787Z,22.50
2018-12-15T08:46:07.794Z,22.50
2018-12-15T08:47:07.752Z,22.50
2018-12-15T08:48:07.742Z,22.50
2018-12-15T08:49:07.748Z,28.12
2018-12-15T08:50:07.719Z,28.12
2018-12-15T08:51:07.709Z,22.50
2018-12-15T08:52:07.700Z,28.12
2018-12-15T08:53:07.700Z,28.12
2018-12-15T08:54:07.694Z,28.12
2018-12-15T08:55:07.664Z,28.12
2018-12-15T08:56:07.658Z,28.12
2018-12-15T08:57:07.643Z,28.12
2018-12-15T08:58:07.634Z,28.12
2018-12-15T08:59:07.642Z,28.12
2018-12-15T09:00:07.606Z,28.12
2018-12-15T09:01:07.602Z,28.12
2018-12-15T09:02:07.594Z,28.12
2018-12-15T09:03:07.597Z,28.12
2018-12-15T09:04:07.576Z,28.12
2018-12-15T09:05:07.557Z,28.12
2018-12-15T09:06:07.546Z,28.12
2018-12-15T09:07:07.551Z,28.12
2018-12-15T09:08:07.521Z,28.12
2018-12-15T09:09:07.519Z,28.12
2018-12-15T09:10:07.503Z,28.12
2018-12-15T09:11:07.485Z,33.75
2018-12-15T09:12:07.481Z,33.75
2018-12-15T09:13:07.485Z,33.75
2018-12-15T09:14:07.479Z,33.75
2018-12-15T09:15:07.447Z,33.75
2018-12-15T09:16:07.436Z,33.75
2018-12-15T09:17:07.419Z,33.75
2018-12-15T09:18:07.417Z,33.75
2018-12-15T09:19:11.214Z,33.75
2018-12-15T09:20:07.435Z,33.75
2018-12-15T09:21:07.393Z,33.75
2018-12-15T09:22:11.321Z,33.75
2018-12-15T09:23:07.357Z,39.38
2018-12-15T09:24:07.358Z,39.38
2018-12-15T09:25:07.331Z,39.38
2018-12-15T09:26:07.327Z,39.38
2018-12-15T09:27:07.344Z,39.38
2018-12-15T09:28:07.310Z,33.75
2018-12-15T09:29:07.297Z,39.38
2018-12-15T09:30:07.303Z,39.38
2018-12-15T09:31:07.268Z,39.38
2018-12-15T09:32:07.380Z,39.38
2018-12-15T09:33:07.244Z,39.38
2018-12-15T09:34:07.284Z,39.38
2018-12-15T09:35:07.230Z,39.38
2018-12-15T09:36:07.224Z,39.38
2018-12-15T09:37:07.208Z,39.38
2018-12-15T09:38:07.196Z,45.00
2018-12-15T09:39:07.205Z,45.00
2018-12-15T09:40:07.181Z,45.00
2018-12-15T09:41:07.158Z,45.00
2018-12-15T09:42:07.156Z,45.00
2018-12-15T09:43:07.146Z,45.00
2018-12-15T09:44:07.556Z,45.00
2018-12-15T09:45:07.115Z,45.00
2018-12-15T09:46:07.108Z,39.38
2018-12-15T09:47:07.099Z,45.00
2018-12-15T09:48:07.132Z,45.00
2018-12-15T09:49:07.093Z,45.00
2018-12-15T09:50:07.063Z,45.00
2018-12-15T09:51:07.095Z,45.00
2018-12-15T09:52:07.046Z,50.62
2018-12-15T09:53:07.033Z,50.62
2018-12-15T09:54:07.035Z,50.62
2018-12-15T09:55:07.003Z,45.00
2018-12-15T09:56:07.005Z,45.00
2018-12-15T09:57:06.989Z,45.00
2018-12-15T09:58:07.020Z,45.00
2018-12-15T09:59:06.971Z,45.00
2018-12-15T10:00:06.949Z,45.00
2018-12-15T10:01:06.940Z,45.00
2018-12-15T10:02:06.927Z,45.00
2018-12-15T10:03:06.922Z,45.00
2018-12-15T10:04:06.916Z,45.00
2018-12-15T10:05:06.894Z,45.00
2018-12-15T10:06:06.894Z,45.00
2018-12-15T10:07:06.907Z,50.62
2018-12-15T10:08:06.866Z,50.62
2018-12-15T10:09:06.862Z,50.62
2018-12-15T10:10:06.860Z,50.62
2018-12-15T10:11:06.833Z,50.62
2018-12-15T10:12:06.829Z,50.62
2018-12-15T10:13:06.805Z,50.62
2018-12-15T10:14:06.813Z,50.62
2018-12-15T10:15:06.799Z,45.00
2018-12-15T10:16:06.771Z,45.00
2018-12-15T10:17:06.826Z,45.00
2018-12-15T10:18:06.758Z,45.00
2018-12-15T10:19:06.755Z,45.00
2018-12-15T10:20:07.231Z,45.00
2018-12-15T10:21:06.731Z,45.00
2018-12-15T10:22:06.703Z,45.00
2018-12-15T10:23:06.704Z,50.62
2018-12-15T10:24:06.682Z,45.00
2018-12-15T10:25:06.704Z,50.62
2018-12-15T10:26:06.661Z,45.00
2018-12-15T10:27:06.659Z,45.00
2018-12-15T10:28:06.641Z,45.00
2018-12-15T10:29:06.637Z,45.00
2018-12-15T10:30:06.641Z,45.00
2018-12-15T10:31:06.606Z,45.00
2018-12-15T10:32:06.599Z,45.00
2018-12-15T10:33:06.603Z,45.00
2018-12-15T10:34:06.579Z,45.00
2018-12-15T10:35:06.577Z,50.62
2018-12-15T10:36:06.550Z,50.62
2018-12-15T10:37:06.537Z,45.00
2018-12-15T10:38:06.536Z,45.00
2018-12-15T10:39:06.515Z,50.62
2018-12-15T10:40:06.517Z,50.62
2018-12-15T10:41:06.507Z,50.62
2018-12-15T10:42:06.488Z,50.62
2018-12-15T10:43:06.469Z,50.62
2018-12-15T10:44:06.472Z,50.62
2018-12-15T10:45:06.462Z,50.62
2018-12-15T10:46:06.438Z,50.62
2018-12-15T10:47:06.424Z,45.00
2018-12-15T10:48:06.426Z,45.00
2018-12-15T10:49:06.412Z,50.62
2018-12-15T10:50:06.412Z,50.62
2018-12-15T10:51:06.393Z,50.62
2018-12-15T10:52:06.373Z,50.62
2018-12-15T10:53:06.357Z,50.62
2018-12-15T10:54:06.396Z,50.62
2018-12-15T10:55:06.370Z,50.62
2018-12-15T10:56:06.336Z,50.62
2018-12-15T10:57:06.316Z,50.62
2018-12-15T10:58:06.311Z,50.62
2018-12-15T10:59:06.296Z,50.62
2018-12-15T11:00:06.303Z,50.62
2018-12-15T11:01:06.268Z,56.25
2018-12-15T11:02:06.263Z,50.62
2018-12-15T11:03:06.247Z,56.25
2018-12-15T11:04:06.260Z,56.25
2018-12-15T11:05:06.248Z,56.25
2018-12-15T11:06:06.241Z,56.25
2018-12-15T11:07:06.214Z,56.25
2018-12-15T11:08:06.206Z,56.25
2018-12-15T11:09:06.188Z,56.25
2018-12-15T11:10:06.192Z,56.25
2018-12-15T11:11:06.169Z,56.25
2018-12-15T11:12:06.165Z,56.25
2018-12-15T11:13:06.140Z,56.25
2018-12-15T11:14:06.139Z,56.25
2018-12-15T11:15:06.146Z,56.25
2018-12-15T11:16:06.106Z,56.25
2018-12-15T11:17:06.098Z,56.25
2018-12-15T11:18:06.084Z,56.25
2018-12-15T11:19:06.069Z,56.25
2018-12-15T11:20:06.075Z,56.25
2018-12-15T11:21:06.064Z,56.25
2018-12-15T11:22:06.068Z,56.25
2018-12-15T11:23:06.033Z,56.25
2018-12-15T11:24:06.013Z,56.25
2018-12-15T11:25:06.051Z,56.25
2018-12-15T11:26:05.997Z,56.25
2018-12-15T11:27:06.012Z,56.25
2018-12-15T11:28:05.970Z,56.25
2018-12-15T11:29:05.977Z,56.25
2018-12-15T11:30:05.990Z,56.25
2018-12-15T11:31:05.948Z,56.25
2018-12-15T11:32:05.946Z,56.25
2018-12-15T11:33:05.926Z,56.25
2018-12-15T11:34:05.901Z,56.25
2018-12-15T11:35:05.892Z,56.25
2018-12-15T11:36:05.894Z,56.25
2018-12-15T11:37:05.868Z,50.62
2018-12-15T11:38:05.858Z,50.62
2018-12-15T11:39:05.879Z,50.62
2018-12-15T11:40:05.838Z,50.62
2018-12-15T11:41:05.835Z,50.62
2018-12-15T11:42:05.818Z,50.62
2018-12-15T11:43:05.819Z,50.62
2018-12-15T11:44:05.816Z,50.62
2018-12-15T11:45:05.804Z,50.62
2018-12-15T11:46:05.791Z,56.25
2018-12-15T11:47:05.758Z,56.25
2018-12-15T11:48:05.746Z,56.25
2018-12-15T11:49:05.739Z,56.25
2018-12-15T11:50:05.737Z,56.25
2018-12-15T11:51:05.740Z,56.25
2018-12-15T11:52:05.701Z,56.25
2018-12-15T11:53:05.698Z,56.25
2018-12-15T11:54:05.683Z,56.25
2018-12-15T11:55:05.690Z,56.25
2018-12-15T11:56:05.684Z,56.25
2018-12-15T11:57:05.650Z,56.25
2018-12-15T11:58:05.637Z,56.25
2018-12-15T11:59:05.636Z,56.25
2018-12-15T12:00:05.626Z,56.25
2018-12-15T12:01:05.622Z,56.25
2018-12-15T12:02:05.591Z,56.25
2018-12-15T12:03:05.581Z,50.62
2018-12-15T12:04:05.571Z,56.25
2018-12-15T12:05:05.563Z,56.25
2018-12-15T12:06:05.582Z,56.25
2018-12-15T12:07:05.556Z,56.25
2018-12-15T12:08:05.560Z,56.25
2018-12-15T12:09:05.520Z,56.25
2018-12-15T12:10:05.505Z,56.25
2018-12-15T12:11:05.524Z,56.25
2018-12-15T12:12:05.524Z,56.25
2018-12-15T12:13:05.489Z,56.25
2018-12-15T12:14:05.459Z,56.25
2018-12-15T12:15:05.450Z,56.25
2018-12-15T12:16:05.459Z,56.25
2018-12-15T12:17:05.442Z,50.62
2018-12-15T12:18:05.419Z,50.62
2018-12-15T12:19:05.440Z,50.62
2018-12-15T12:20:05.394Z,56.25
2018-12-15T12:21:05.406Z,56.25
2018-12-15T12:22:05.369Z,56.25
2018-12-15T12:23:05.381Z,56.25
2018-12-15T12:24:05.381Z,56.25
2018-12-15T12:25:05.357Z,56.25
2018-12-15T12:26:05.349Z,56.25
2018-12-15T12:27:05.320Z,56.25
2018-12-15T12:28:05.307Z,56.25
2018-12-15T12:29:05.323Z,56.25
2018-12-15T12:30:05.284Z,56.25
2018-12-15T12:31:05.319Z,56.25
2018-12-15T12:32:05.259Z,56.25
2018-12-15T12:33:05.264Z,56.25
2018-12-15T12:34:05.257Z,56.25
2018-12-15T12:35:05.240Z,56.25
2018-12-15T12:36:05.243Z,56.25
2018-12-15T12:37:05.203Z,56.25
2018-12-15T12:38:05.197Z,56.25
2018-12-15T12:39:05.199Z,56.25
2018-12-15T12:40:05.188Z,61.88
2018-12-15T12:41:05.181Z,56.25
2018-12-15T12:42:05.154Z,56.25
2018-12-15T12:43:05.139Z,56.25
2018-12-15T12:44:05.133Z,56.25
2018-12-15T12:45:05.120Z,56.25
2018-12-15T12:46:05.145Z,50.62
2018-12-15T12:47:05.095Z,50.62
2018-12-15T12:48:05.100Z,56.25
2018-12-15T12:49:05.071Z,56.25
2018-12-15T12:50:05.058Z,56.25
2018-12-15T12:51:05.068Z,56.25
2018-12-15T12:52:05.045Z,56.25
2018-12-15T12:53:05.034Z,50.62
2018-12-15T12:54:05.015Z,50.62
2018-12-15T12:55:05.004Z,50.62
2018-12-15T12:56:05.013Z,50.62
2018-12-15T12:57:04.987Z,50.62
2018-12-15T12:58:04.993Z,50.62
2018-12-15T12:59:04.964Z,50.62
2018-12-15T13:00:04.945Z,50.62
2018-12-15T13:01:04.933Z,45.00
2018-12-15T13:02:04.938Z,45.00
2018-12-15T13:03:04.930Z,50.62
2018-12-15T13:04:04.912Z,50.62
2018-12-15T13:05:04.907Z,50.62
2018-12-15T13:06:04.881Z,50.62
2018-12-15T13:07:04.940Z,50.62
2018-12-15T13:08:04.860Z,45.00